sensor_id;sensor_type;location;lat;lon;timestamp;P1;durP1;ratioP1;P2;durP2;ratioP2
4857;SDS011;58975;51.978;8.472;2023-02-24T00:02:02;25.83;;;5.05;;
4857;SDS011;58975;51.978;8.472;2023-02-24T00:07:00;30.02;;;4.28;;
4857;SDS011;58975;51.978;8.472;2023-02-24T00:12:02;27.02;;;4.43;;
4857;SDS011;58975;51.978;8.472;2023-02-24T00:17:00;22.65;;;3.83;;
4857;SDS011;58975;51.978;8.472;2023-02-24T00:21:57;18.33;;;3.50;;
4857;SDS011;58975;51.978;8.472;2023-02-24T00:26:56;27.13;;;4.60;;
4857;SDS011;58975;51.978;8.472;2023-02-24T00:31:55;25.42;;;4.82;;
4857;SDS011;58975;51.978;8.472;2023-02-24T00:36:56;26.17;;;4.50;;
4857;SDS011;58975;51.978;8.472;2023-02-24T00:41:53;27.17;;;3.47;;
4857;SDS011;58975;51.978;8.472;2023-02-24T00:47:00;22.70;;;4.15;;
4857;SDS011;58975;51.978;8.472;2023-02-24T00:51:58;19.35;;;3.88;;
4857;SDS011;58975;51.978;8.472;2023-02-24T00:56:55;17.33;;;4.53;;
4857;SDS011;58975;51.978;8.472;2023-02-24T01:01:52;14.68;;;2.85;;
4857;SDS011;58975;51.978;8.472;2023-02-24T01:06:50;21.05;;;4.28;;
4857;SDS011;58975;51.978;8.472;2023-02-24T01:11:55;21.25;;;4.35;;
4857;SDS011;58975;51.978;8.472;2023-02-24T01:17:11;24.67;;;3.80;;
4857;SDS011;58975;51.978;8.472;2023-02-24T01:22:08;16.77;;;2.95;;
4857;SDS011;58975;51.978;8.472;2023-02-24T01:27:05;16.48;;;4.07;;
4857;SDS011;58975;51.978;8.472;2023-02-24T01:32:01;20.15;;;3.78;;
4857;SDS011;58975;51.978;8.472;2023-02-24T01:36:58;28.05;;;5.30;;
4857;SDS011;58975;51.978;8.472;2023-02-24T01:41:54;25.27;;;5.10;;
4857;SDS011;58975;51.978;8.472;2023-02-24T01:46:55;40.05;;;5.82;;
4857;SDS011;58975;51.978;8.472;2023-02-24T01:51:52;25.58;;;5.68;;
4857;SDS011;58975;51.978;8.472;2023-02-24T01:56:53;29.73;;;6.65;;
4857;SDS011;58975;51.978;8.472;2023-02-24T02:01:54;33.55;;;4.65;;
4857;SDS011;58975;51.978;8.472;2023-02-24T02:06:59;19.63;;;4.57;;
4857;SDS011;58975;51.978;8.472;2023-02-24T02:11:57;29.58;;;5.90;;
4857;SDS011;58975;51.978;8.472;2023-02-24T02:17:12;29.60;;;4.75;;
4857;SDS011;58975;51.978;8.472;2023-02-24T02:22:37;31.23;;;5.22;;
4857;SDS011;58975;51.978;8.472;2023-02-24T02:27:45;34.63;;;5.85;;
4857;SDS011;58975;51.978;8.472;2023-02-24T02:33:26;29.52;;;6.38;;
4857;SDS011;58975;51.978;8.472;2023-02-24T02:39:07;41.55;;;5.35;;
4857;SDS011;58975;51.978;8.472;2023-02-24T02:44:35;41.50;;;7.45;;
4857;SDS011;58975;51.978;8.472;2023-02-24T02:49:37;30.48;;;5.35;;
4857;SDS011;58975;51.978;8.472;2023-02-24T02:54:54;38.80;;;5.43;;
4857;SDS011;58975;51.978;8.472;2023-02-24T03:00:05;37.13;;;7.35;;
4857;SDS011;58975;51.978;8.472;2023-02-24T03:05:08;26.05;;;4.93;;
4857;SDS011;58975;51.978;8.472;2023-02-24T03:10:10;21.48;;;4.35;;
4857;SDS011;58975;51.978;8.472;2023-02-24T03:15:16;18.08;;;4.75;;
4857;SDS011;58975;51.978;8.472;2023-02-24T03:20:20;28.63;;;4.82;;
4857;SDS011;58975;51.978;8.472;2023-02-24T03:25:20;20.98;;;4.68;;
4857;SDS011;58975;51.978;8.472;2023-02-24T03:30:21;21.38;;;4.32;;
4857;SDS011;58975;51.978;8.472;2023-02-24T03:40:22;21.90;;;4.93;;
4857;SDS011;58975;51.978;8.472;2023-02-24T03:45:28;16.20;;;3.88;;
4857;SDS011;58975;51.978;8.472;2023-02-24T03:50:24;28.98;;;5.43;;
4857;SDS011;58975;51.978;8.472;2023-02-24T04:00:45;26.55;;;4.30;;
4857;SDS011;58975;51.978;8.472;2023-02-24T04:16:23;17.25;;;3.17;;
4857;SDS011;58975;51.978;8.472;2023-02-24T04:21:27;17.67;;;2.85;;
4857;SDS011;58975;51.978;8.472;2023-02-24T04:26:27;28.52;;;5.40;;
4857;SDS011;58975;51.978;8.472;2023-02-24T04:31:24;20.48;;;3.33;;
4857;SDS011;58975;51.978;8.472;2023-02-24T04:41:19;14.02;;;2.70;;
4857;SDS011;58975;51.978;8.472;2023-02-24T04:46:20;17.20;;;2.33;;
4857;SDS011;58975;51.978;8.472;2023-02-24T04:51:18;9.43;;;2.58;;
4857;SDS011;58975;51.978;8.472;2023-02-24T04:56:16;8.30;;;1.80;;
4857;SDS011;58975;51.978;8.472;2023-02-24T05:01:13;19.50;;;2.72;;
4857;SDS011;58975;51.978;8.472;2023-02-24T05:06:12;15.57;;;3.13;;
4857;SDS011;58975;51.978;8.472;2023-02-24T05:11:15;17.80;;;2.58;;
4857;SDS011;58975;51.978;8.472;2023-02-24T05:16:14;13.48;;;2.22;;
4857;SDS011;58975;51.978;8.472;2023-02-24T05:21:13;12.13;;;2.13;;
4857;SDS011;58975;51.978;8.472;2023-02-24T05:26:29;14.70;;;2.65;;
4857;SDS011;58975;51.978;8.472;2023-02-24T05:31:28;18.35;;;2.50;;
4857;SDS011;58975;51.978;8.472;2023-02-24T05:36:27;7.43;;;2.50;;
4857;SDS011;58975;51.978;8.472;2023-02-24T05:46:28;10.23;;;2.60;;
4857;SDS011;58975;51.978;8.472;2023-02-24T05:51:30;18.63;;;2.22;;
4857;SDS011;58975;51.978;8.472;2023-02-24T05:56:31;16.02;;;2.10;;
4857;SDS011;58975;51.978;8.472;2023-02-24T06:01:32;14.30;;;3.92;;
4857;SDS011;58975;51.978;8.472;2023-02-24T06:06:35;20.17;;;4.38;;
4857;SDS011;58975;51.978;8.472;2023-02-24T06:11:34;17.60;;;2.53;;
4857;SDS011;58975;51.978;8.472;2023-02-24T06:16:32;16.30;;;3.55;;
4857;SDS011;58975;51.978;8.472;2023-02-24T06:21:30;15.52;;;4.45;;
4857;SDS011;58975;51.978;8.472;2023-02-24T06:26:27;9.70;;;3.08;;
4857;SDS011;58975;51.978;8.472;2023-02-24T06:31:28;10.73;;;1.60;;
4857;SDS011;58975;51.978;8.472;2023-02-24T06:36:25;15.30;;;2.78;;
4857;SDS011;58975;51.978;8.472;2023-02-24T06:41:21;13.05;;;2.05;;
4857;SDS011;58975;51.978;8.472;2023-02-24T06:46:18;10.50;;;2.08;;
4857;SDS011;58975;51.978;8.472;2023-02-24T06:51:15;13.23;;;2.33;;
4857;SDS011;58975;51.978;8.472;2023-02-24T06:56:13;16.45;;;2.17;;
4857;SDS011;58975;51.978;8.472;2023-02-24T07:01:14;10.52;;;1.80;;
4857;SDS011;58975;51.978;8.472;2023-02-24T07:06:13;18.42;;;3.88;;
4857;SDS011;58975;51.978;8.472;2023-02-24T07:11:23;7.88;;;1.58;;
4857;SDS011;58975;51.978;8.472;2023-02-24T07:16:21;10.32;;;2.63;;
4857;SDS011;58975;51.978;8.472;2023-02-24T07:21:24;13.15;;;2.05;;
4857;SDS011;58975;51.978;8.472;2023-02-24T07:26:25;11.48;;;2.65;;
4857;SDS011;58975;51.978;8.472;2023-02-24T07:31:23;10.60;;;2.95;;
4857;SDS011;58975;51.978;8.472;2023-02-24T07:36:21;12.35;;;1.95;;
4857;SDS011;58975;51.978;8.472;2023-02-24T07:41:20;8.98;;;2.00;;
4857;SDS011;58975;51.978;8.472;2023-02-24T07:46:20;5.72;;;2.00;;
4857;SDS011;58975;51.978;8.472;2023-02-24T07:51:20;12.25;;;1.85;;
4857;SDS011;58975;51.978;8.472;2023-02-24T07:56:20;13.45;;;3.08;;
4857;SDS011;58975;51.978;8.472;2023-02-24T08:01:22;5.53;;;1.83;;
4857;SDS011;58975;51.978;8.472;2023-02-24T08:06:18;14.70;;;1.98;;
4857;SDS011;58975;51.978;8.472;2023-02-24T08:11:32;7.38;;;1.90;;
4857;SDS011;58975;51.978;8.472;2023-02-24T08:16:32;12.75;;;2.20;;
4857;SDS011;58975;51.978;8.472;2023-02-24T08:21:40;6.85;;;1.52;;
4857;SDS011;58975;51.978;8.472;2023-02-24T08:26:43;11.35;;;1.42;;
4857;SDS011;58975;51.978;8.472;2023-02-24T08:31:58;13.85;;;1.58;;
4857;SDS011;58975;51.978;8.472;2023-02-24T08:36:55;9.52;;;1.98;;
4857;SDS011;58975;51.978;8.472;2023-02-24T08:41:52;7.93;;;1.30;;
4857;SDS011;58975;51.978;8.472;2023-02-24T08:46:50;20.92;;;3.38;;
4857;SDS011;58975;51.978;8.472;2023-02-24T08:51:47;10.27;;;2.13;;
4857;SDS011;58975;51.978;8.472;2023-02-24T08:56:45;6.68;;;1.65;;
4857;SDS011;58975;51.978;8.472;2023-02-24T09:01:51;10.88;;;2.33;;
4857;SDS011;58975;51.978;8.472;2023-02-24T09:07:00;12.52;;;2.17;;
4857;SDS011;58975;51.978;8.472;2023-02-24T09:12:07;12.75;;;1.88;;
4857;SDS011;58975;51.978;8.472;2023-02-24T09:17:05;15.50;;;1.90;;
4857;SDS011;58975;51.978;8.472;2023-02-24T09:22:09;10.43;;;1.60;;
4857;SDS011;58975;51.978;8.472;2023-02-24T09:27:24;8.18;;;1.65;;
4857;SDS011;58975;51.978;8.472;2023-02-24T09:32:24;6.75;;;1.65;;
4857;SDS011;58975;51.978;8.472;2023-02-24T09:37:24;9.55;;;2.55;;
4857;SDS011;58975;51.978;8.472;2023-02-24T09:42:24;10.02;;;1.80;;
4857;SDS011;58975;51.978;8.472;2023-02-24T09:52:35;11.13;;;2.10;;
4857;SDS011;58975;51.978;8.472;2023-02-24T09:57:44;9.10;;;2.45;;
4857;SDS011;58975;51.978;8.472;2023-02-24T10:03:07;14.65;;;3.50;;
4857;SDS011;58975;51.978;8.472;2023-02-24T10:08:33;5.47;;;2.15;;
4857;SDS011;58975;51.978;8.472;2023-02-24T10:13:35;11.10;;;2.15;;
4857;SDS011;58975;51.978;8.472;2023-02-24T10:24:12;5.93;;;2.30;;
4857;SDS011;58975;51.978;8.472;2023-02-24T10:29:21;18.02;;;3.15;;
4857;SDS011;58975;51.978;8.472;2023-02-24T10:34:25;11.25;;;3.13;;
4857;SDS011;58975;51.978;8.472;2023-02-24T10:39:26;8.85;;;4.25;;
4857;SDS011;58975;51.978;8.472;2023-02-24T10:44:28;13.90;;;4.05;;
4857;SDS011;58975;51.978;8.472;2023-02-24T10:49:37;10.90;;;4.82;;
4857;SDS011;58975;51.978;8.472;2023-02-24T10:54:38;13.40;;;4.90;;
4857;SDS011;58975;51.978;8.472;2023-02-24T11:00:00;17.30;;;7.10;;
4857;SDS011;58975;51.978;8.472;2023-02-24T11:05:15;13.73;;;6.10;;
4857;SDS011;58975;51.978;8.472;2023-02-24T11:10:22;17.42;;;5.88;;
4857;SDS011;58975;51.978;8.472;2023-02-24T11:25:58;19.23;;;6.93;;
4857;SDS011;58975;51.978;8.472;2023-02-24T11:31:06;14.73;;;7.07;;
4857;SDS011;58975;51.978;8.472;2023-02-24T11:36:16;16.70;;;7.88;;
4857;SDS011;58975;51.978;8.472;2023-02-24T11:41:26;14.40;;;7.38;;
4857;SDS011;58975;51.978;8.472;2023-02-24T11:46:33;10.70;;;6.88;;
4857;SDS011;58975;51.978;8.472;2023-02-24T11:51:34;18.00;;;7.45;;
4857;SDS011;58975;51.978;8.472;2023-02-24T11:56:33;17.73;;;7.40;;
4857;SDS011;58975;51.978;8.472;2023-02-24T12:01:49;10.52;;;7.65;;
4857;SDS011;58975;51.978;8.472;2023-02-24T12:06:58;18.80;;;7.78;;
4857;SDS011;58975;51.978;8.472;2023-02-24T12:12:04;16.00;;;8.00;;
4857;SDS011;58975;51.978;8.472;2023-02-24T12:22:32;17.80;;;10.25;;
4857;SDS011;58975;51.978;8.472;2023-02-24T12:27:57;19.55;;;10.93;;
4857;SDS011;58975;51.978;8.472;2023-02-24T12:59:24;24.92;;;14.40;;
4857;SDS011;58975;51.978;8.472;2023-02-24T13:14:40;30.38;;;15.95;;
4857;SDS011;58975;51.978;8.472;2023-02-24T13:19:38;38.15;;;15.70;;
4857;SDS011;58975;51.978;8.472;2023-02-24T13:24:36;31.90;;;17.53;;
4857;SDS011;58975;51.978;8.472;2023-02-24T13:34:43;30.30;;;17.13;;
4857;SDS011;58975;51.978;8.472;2023-02-24T13:39:40;32.55;;;18.45;;
4857;SDS011;58975;51.978;8.472;2023-02-24T13:44:36;31.80;;;17.33;;
4857;SDS011;58975;51.978;8.472;2023-02-24T14:06:00;26.63;;;15.90;;
4857;SDS011;58975;51.978;8.472;2023-02-24T14:10:57;25.40;;;15.50;;
4857;SDS011;58975;51.978;8.472;2023-02-24T14:15:55;25.05;;;15.18;;
4857;SDS011;58975;51.978;8.472;2023-02-24T14:20:55;30.30;;;16.23;;
4857;SDS011;58975;51.978;8.472;2023-02-24T14:25:53;24.27;;;14.68;;
4857;SDS011;58975;51.978;8.472;2023-02-24T14:30:54;19.58;;;12.38;;
4857;SDS011;58975;51.978;8.472;2023-02-24T14:35:53;22.48;;;12.65;;
4857;SDS011;58975;51.978;8.472;2023-02-24T14:40:50;26.60;;;14.35;;
4857;SDS011;58975;51.978;8.472;2023-02-24T14:45:48;27.33;;;12.88;;
4857;SDS011;58975;51.978;8.472;2023-02-24T14:50:46;26.92;;;14.15;;
4857;SDS011;58975;51.978;8.472;2023-02-24T14:55:44;33.17;;;14.75;;
4857;SDS011;58975;51.978;8.472;2023-02-24T15:00:50;27.15;;;14.60;;
4857;SDS011;58975;51.978;8.472;2023-02-24T15:05:52;25.37;;;13.73;;
4857;SDS011;58975;51.978;8.472;2023-02-24T15:10:50;27.30;;;14.52;;
4857;SDS011;58975;51.978;8.472;2023-02-24T15:15:47;32.10;;;15.27;;
4857;SDS011;58975;51.978;8.472;2023-02-24T15:20:43;28.92;;;15.48;;
4857;SDS011;58975;51.978;8.472;2023-02-24T15:25:41;29.10;;;15.32;;
4857;SDS011;58975;51.978;8.472;2023-02-24T15:30:52;34.03;;;15.63;;
4857;SDS011;58975;51.978;8.472;2023-02-24T15:35:54;26.35;;;15.93;;
4857;SDS011;58975;51.978;8.472;2023-02-24T15:40:54;33.47;;;16.58;;
4857;SDS011;58975;51.978;8.472;2023-02-24T15:45:54;32.15;;;16.33;;
4857;SDS011;58975;51.978;8.472;2023-02-24T15:50:50;26.83;;;15.70;;
4857;SDS011;58975;51.978;8.472;2023-02-24T15:55:47;39.22;;;15.23;;
4857;SDS011;58975;51.978;8.472;2023-02-24T16:00:44;28.27;;;16.13;;
4857;SDS011;58975;51.978;8.472;2023-02-24T16:05:41;26.88;;;15.75;;
4857;SDS011;58975;51.978;8.472;2023-02-24T16:10:37;26.23;;;13.55;;
4857;SDS011;58975;51.978;8.472;2023-02-24T16:15:35;27.83;;;12.88;;
4857;SDS011;58975;51.978;8.472;2023-02-24T16:20:37;22.00;;;11.82;;
4857;SDS011;58975;51.978;8.472;2023-02-24T16:25:36;21.08;;;11.48;;
4857;SDS011;58975;51.978;8.472;2023-02-24T16:30:35;26.73;;;14.05;;
4857;SDS011;58975;51.978;8.472;2023-02-24T16:35:32;27.42;;;14.90;;
4857;SDS011;58975;51.978;8.472;2023-02-24T16:40:29;22.88;;;14.32;;
4857;SDS011;58975;51.978;8.472;2023-02-24T16:45:33;28.38;;;13.60;;
4857;SDS011;58975;51.978;8.472;2023-02-24T16:50:37;28.30;;;14.80;;
4857;SDS011;58975;51.978;8.472;2023-02-24T16:55:35;35.85;;;13.93;;
4857;SDS011;58975;51.978;8.472;2023-02-24T17:00:32;27.42;;;12.93;;
4857;SDS011;58975;51.978;8.472;2023-02-24T17:05:28;30.38;;;14.13;;
4857;SDS011;58975;51.978;8.472;2023-02-24T17:10:25;31.42;;;13.82;;
4857;SDS011;58975;51.978;8.472;2023-02-24T17:15:22;21.15;;;12.40;;
4857;SDS011;58975;51.978;8.472;2023-02-24T17:20:19;31.58;;;14.90;;
4857;SDS011;58975;51.978;8.472;2023-02-24T17:25:17;24.95;;;12.13;;
4857;SDS011;58975;51.978;8.472;2023-02-24T17:30:18;22.48;;;10.68;;
4857;SDS011;58975;51.978;8.472;2023-02-24T17:35:17;16.50;;;9.05;;
4857;SDS011;58975;51.978;8.472;2023-02-24T17:40:14;17.33;;;6.85;;
4857;SDS011;58975;51.978;8.472;2023-02-24T17:45:12;5.88;;;3.42;;
4857;SDS011;58975;51.978;8.472;2023-02-24T17:50:09;6.30;;;2.60;;
4857;SDS011;58975;51.978;8.472;2023-02-24T17:55:07;4.50;;;2.30;;
4857;SDS011;58975;51.978;8.472;2023-02-24T18:00:05;4.07;;;1.52;;
4857;SDS011;58975;51.978;8.472;2023-02-24T18:05:02;1.65;;;1.25;;
4857;SDS011;58975;51.978;8.472;2023-02-24T18:09:59;2.83;;;1.38;;
4857;SDS011;58975;51.978;8.472;2023-02-24T18:14:55;4.22;;;1.27;;
4857;SDS011;58975;51.978;8.472;2023-02-24T18:20:04;6.03;;;1.30;;
4857;SDS011;58975;51.978;8.472;2023-02-24T18:25:01;5.60;;;1.30;;
4857;SDS011;58975;51.978;8.472;2023-02-24T18:29:58;6.72;;;2.40;;
4857;SDS011;58975;51.978;8.472;2023-02-24T18:34:55;3.38;;;1.77;;
4857;SDS011;58975;51.978;8.472;2023-02-24T18:39:51;11.45;;;1.45;;
4857;SDS011;58975;51.978;8.472;2023-02-24T18:44:48;6.85;;;1.52;;
4857;SDS011;58975;51.978;8.472;2023-02-24T18:49:44;7.13;;;1.75;;
4857;SDS011;58975;51.978;8.472;2023-02-24T18:54:41;8.48;;;1.60;;
4857;SDS011;58975;51.978;8.472;2023-02-24T18:59:37;8.30;;;1.85;;
4857;SDS011;58975;51.978;8.472;2023-02-24T19:04:33;3.92;;;2.22;;
4857;SDS011;58975;51.978;8.472;2023-02-24T19:09:30;8.00;;;2.83;;
4857;SDS011;58975;51.978;8.472;2023-02-24T19:14:26;7.55;;;2.83;;
4857;SDS011;58975;51.978;8.472;2023-02-24T19:19:23;8.73;;;2.35;;
4857;SDS011;58975;51.978;8.472;2023-02-24T19:24:19;4.25;;;2.20;;
4857;SDS011;58975;51.978;8.472;2023-02-24T19:29:17;8.52;;;2.10;;
4857;SDS011;58975;51.978;8.472;2023-02-24T19:34:14;6.03;;;1.67;;
4857;SDS011;58975;51.978;8.472;2023-02-24T19:39:12;10.55;;;2.17;;
4857;SDS011;58975;51.978;8.472;2023-02-24T19:49:06;11.90;;;2.28;;
4857;SDS011;58975;51.978;8.472;2023-02-24T19:54:03;7.75;;;1.77;;
4857;SDS011;58975;51.978;8.472;2023-02-24T19:59:02;10.23;;;2.07;;
4857;SDS011;58975;51.978;8.472;2023-02-24T20:04:01;11.65;;;3.08;;
4857;SDS011;58975;51.978;8.472;2023-02-24T20:08:58;13.63;;;2.40;;
4857;SDS011;58975;51.978;8.472;2023-02-24T20:13:55;20.85;;;4.15;;
4857;SDS011;58975;51.978;8.472;2023-02-24T20:18:52;17.88;;;7.22;;
4857;SDS011;58975;51.978;8.472;2023-02-24T20:23:50;22.00;;;2.90;;
4857;SDS011;58975;51.978;8.472;2023-02-24T20:28:47;12.10;;;3.17;;
4857;SDS011;58975;51.978;8.472;2023-02-24T20:33:44;16.70;;;2.10;;
4857;SDS011;58975;51.978;8.472;2023-02-24T20:38:42;16.83;;;2.42;;
4857;SDS011;58975;51.978;8.472;2023-02-24T20:43:38;21.50;;;3.72;;
4857;SDS011;58975;51.978;8.472;2023-02-24T20:48:35;9.30;;;1.80;;
4857;SDS011;58975;51.978;8.472;2023-02-24T20:53:31;9.13;;;2.88;;
4857;SDS011;58975;51.978;8.472;2023-02-24T20:58:35;27.20;;;2.70;;
4857;SDS011;58975;51.978;8.472;2023-02-24T21:03:31;14.73;;;2.13;;
4857;SDS011;58975;51.978;8.472;2023-02-24T21:08:28;27.60;;;5.47;;
4857;SDS011;58975;51.978;8.472;2023-02-24T21:13:24;15.68;;;2.40;;
4857;SDS011;58975;51.978;8.472;2023-02-24T21:18:21;16.98;;;3.05;;
4857;SDS011;58975;51.978;8.472;2023-02-24T21:23:18;12.13;;;2.47;;
4857;SDS011;58975;51.978;8.472;2023-02-24T21:28:14;25.58;;;3.13;;
4857;SDS011;58975;51.978;8.472;2023-02-24T21:33:11;18.73;;;3.50;;
4857;SDS011;58975;51.978;8.472;2023-02-24T21:38:08;13.95;;;2.67;;
4857;SDS011;58975;51.978;8.472;2023-02-24T21:43:05;24.70;;;3.50;;
4857;SDS011;58975;51.978;8.472;2023-02-24T21:48:01;25.02;;;3.13;;
4857;SDS011;58975;51.978;8.472;2023-02-24T21:52:57;25.30;;;3.10;;
4857;SDS011;58975;51.978;8.472;2023-02-24T21:57:56;10.05;;;2.10;;
4857;SDS011;58975;51.978;8.472;2023-02-24T22:02:53;21.42;;;3.22;;
4857;SDS011;58975;51.978;8.472;2023-02-24T22:07:50;21.30;;;2.80;;
4857;SDS011;58975;51.978;8.472;2023-02-24T22:12:47;17.55;;;2.28;;
4857;SDS011;58975;51.978;8.472;2023-02-24T22:17:45;15.23;;;2.53;;
4857;SDS011;58975;51.978;8.472;2023-02-24T22:22:42;22.88;;;3.75;;
4857;SDS011;58975;51.978;8.472;2023-02-24T22:27:39;17.20;;;2.35;;
4857;SDS011;58975;51.978;8.472;2023-02-24T22:32:35;24.83;;;3.58;;
4857;SDS011;58975;51.978;8.472;2023-02-24T22:37:32;20.13;;;3.03;;
4857;SDS011;58975;51.978;8.472;2023-02-24T22:42:29;22.60;;;3.25;;
4857;SDS011;58975;51.978;8.472;2023-02-24T22:47:26;14.07;;;2.28;;
4857;SDS011;58975;51.978;8.472;2023-02-24T22:52:25;28.38;;;3.58;;
4857;SDS011;58975;51.978;8.472;2023-02-24T22:57:22;20.55;;;3.67;;
4857;SDS011;58975;51.978;8.472;2023-02-24T23:02:18;16.92;;;2.42;;
4857;SDS011;58975;51.978;8.472;2023-02-24T23:07:15;17.67;;;2.92;;
4857;SDS011;58975;51.978;8.472;2023-02-24T23:12:12;16.02;;;2.25;;
4857;SDS011;58975;51.978;8.472;2023-02-24T23:17:10;12.50;;;2.67;;
4857;SDS011;58975;51.978;8.472;2023-02-24T23:22:08;25.77;;;3.40;;
4857;SDS011;58975;51.978;8.472;2023-02-24T23:27:04;15.43;;;2.80;;
4857;SDS011;58975;51.978;8.472;2023-02-24T23:32:01;24.70;;;5.00;;
4857;SDS011;58975;51.978;8.472;2023-02-24T23:36:58;17.25;;;2.88;;
4857;SDS011;58975;51.978;8.472;2023-02-24T23:41:54;37.72;;;5.38;;
4857;SDS011;58975;51.978;8.472;2023-02-24T23:46:53;11.07;;;2.43;;
4857;SDS011;58975;51.978;8.472;2023-02-24T23:51:50;13.68;;;2.67;;
4857;SDS011;58975;51.978;8.472;2023-02-24T23:56:47;12.05;;;2.33;;
